sensor_id;sensor_type;location;lat;lon;timestamp;temperature;humidity
68248;SHT30;55064;49.636;12.164;2023-07-13T00:00:41;21.49;80.94
68248;SHT30;55064;49.636;12.164;2023-07-13T00:03:10;21.46;80.93
68248;SHT30;55064;49.636;12.164;2023-07-13T00:05:38;21.43;81.02
68248;SHT30;55064;49.636;12.164;2023-07-13T00:08:06;21.53;80.41
68248;SHT30;55064;49.636;12.164;2023-07-13T00:10:42;21.57;80.22
68248;SHT30;55064;49.636;12.164;2023-07-13T00:13:08;21.50;80.16
68248;SHT30;55064;49.636;12.164;2023-07-13T00:15:35;21.49;80.38
68248;SHT30;55064;49.636;12.164;2023-07-13T00:18:01;21.55;79.88
68248;SHT30;55064;49.636;12.164;2023-07-13T00:20:27;21.45;79.93
68248;SHT30;55064;49.636;12.164;2023-07-13T00:22:53;21.42;79.91
68248;SHT30;55064;49.636;12.164;2023-07-13T00:25:20;21.50;79.36
68248;SHT30;55064;49.636;12.164;2023-07-13T00:27:47;21.55;79.15
68248;SHT30;55064;49.636;12.164;2023-07-13T00:30:15;21.57;79.18
68248;SHT30;55064;49.636;12.164;2023-07-13T00:32:42;21.56;78.90
68248;SHT30;55064;49.636;12.164;2023-07-13T00:35:15;21.57;78.29
68248;SHT30;55064;49.636;12.164;2023-07-13T00:37:44;21.60;78.11
68248;SHT30;55064;49.636;12.164;2023-07-13T00:40:12;21.65;77.64
68248;SHT30;55064;49.636;12.164;2023-07-13T00:42:41;21.60;77.28
68248;SHT30;55064;49.636;12.164;2023-07-13T00:47:41;21.57;76.31
68248;SHT30;55064;49.636;12.164;2023-07-13T00:50:09;21.56;75.92
68248;SHT30;55064;49.636;12.164;2023-07-13T00:52:40;21.53;75.67
68248;SHT30;55064;49.636;12.164;2023-07-13T00:55:07;21.50;75.74
68248;SHT30;55064;49.636;12.164;2023-07-13T00:57:34;21.45;75.97
68248;SHT30;55064;49.636;12.164;2023-07-13T01:00:03;21.31;75.26
68248;SHT30;55064;49.636;12.164;2023-07-13T01:02:31;21.31;75.09
68248;SHT30;55064;49.636;12.164;2023-07-13T01:04:57;21.31;73.89
68248;SHT30;55064;49.636;12.164;2023-07-13T01:07:22;21.38;73.25
68248;SHT30;55064;49.636;12.164;2023-07-13T01:09:53;21.34;71.99
68248;SHT30;55064;49.636;12.164;2023-07-13T01:12:20;21.24;71.18
68248;SHT30;55064;49.636;12.164;2023-07-13T01:14:46;21.28;70.79
68248;SHT30;55064;49.636;12.164;2023-07-13T01:17:13;21.24;71.03
68248;SHT30;55064;49.636;12.164;2023-07-13T01:19:42;21.25;70.95
68248;SHT30;55064;49.636;12.164;2023-07-13T01:22:14;21.20;71.14
68248;SHT30;55064;49.636;12.164;2023-07-13T01:24:43;21.14;71.22
68248;SHT30;55064;49.636;12.164;2023-07-13T01:27:14;21.14;71.20
68248;SHT30;55064;49.636;12.164;2023-07-13T01:29:40;21.14;71.27
68248;SHT30;55064;49.636;12.164;2023-07-13T01:32:16;21.07;71.49
68248;SHT30;55064;49.636;12.164;2023-07-13T01:34:51;21.14;71.28
68248;SHT30;55064;49.636;12.164;2023-07-13T01:37:21;21.11;71.32
68248;SHT30;55064;49.636;12.164;2023-07-13T01:39:47;21.08;71.50
68248;SHT30;55064;49.636;12.164;2023-07-13T01:42:14;21.05;71.39
68248;SHT30;55064;49.636;12.164;2023-07-13T01:44:39;21.02;71.53
68248;SHT30;55064;49.636;12.164;2023-07-13T01:47:06;20.98;71.54
68248;SHT30;55064;49.636;12.164;2023-07-13T01:49:36;20.88;71.83
68248;SHT30;55064;49.636;12.164;2023-07-13T01:52:04;20.94;71.77
68248;SHT30;55064;49.636;12.164;2023-07-13T01:54:37;20.97;71.51
68248;SHT30;55064;49.636;12.164;2023-07-13T01:57:03;20.97;71.54
68248;SHT30;55064;49.636;12.164;2023-07-13T01:59:28;20.87;71.55
68248;SHT30;55064;49.636;12.164;2023-07-13T02:01:54;20.83;71.62
68248;SHT30;55064;49.636;12.164;2023-07-13T02:04:19;20.87;71.70
68248;SHT30;55064;49.636;12.164;2023-07-13T02:06:47;20.84;71.73
68248;SHT30;55064;49.636;12.164;2023-07-13T02:09:12;20.73;71.83
68248;SHT30;55064;49.636;12.164;2023-07-13T02:11:38;20.72;71.83
68248;SHT30;55064;49.636;12.164;2023-07-13T02:14:03;20.72;71.66
68248;SHT30;55064;49.636;12.164;2023-07-13T02:16:29;20.65;71.99
68248;SHT30;55064;49.636;12.164;2023-07-13T02:18:58;20.67;71.97
68248;SHT30;55064;49.636;12.164;2023-07-13T02:21:26;20.57;71.64
68248;SHT30;55064;49.636;12.164;2023-07-13T02:23:53;20.59;71.39
68248;SHT30;55064;49.636;12.164;2023-07-13T02:26:20;20.62;71.14
68248;SHT30;55064;49.636;12.164;2023-07-13T02:28:45;20.57;71.30
68248;SHT30;55064;49.636;12.164;2023-07-13T02:31:16;20.57;71.34
68248;SHT30;55064;49.636;12.164;2023-07-13T02:33:41;20.55;71.43
68248;SHT30;55064;49.636;12.164;2023-07-13T02:36:08;20.49;71.43
68248;SHT30;55064;49.636;12.164;2023-07-13T02:38:37;20.42;71.56
68248;SHT30;55064;49.636;12.164;2023-07-13T02:41:06;20.42;71.40
68248;SHT30;55064;49.636;12.164;2023-07-13T02:43:32;20.42;71.72
68248;SHT30;55064;49.636;12.164;2023-07-13T02:46:01;20.32;70.95
68248;SHT30;55064;49.636;12.164;2023-07-13T02:48:32;20.24;70.77
68248;SHT30;55064;49.636;12.164;2023-07-13T02:50:58;20.26;71.03
68248;SHT30;55064;49.636;12.164;2023-07-13T02:53:28;20.18;71.38
68248;SHT30;55064;49.636;12.164;2023-07-13T02:55:54;20.12;71.89
68248;SHT30;55064;49.636;12.164;2023-07-13T02:58:20;20.00;72.52
68248;SHT30;55064;49.636;12.164;2023-07-13T03:00:49;19.95;72.30
68248;SHT30;55064;49.636;12.164;2023-07-13T03:03:15;19.91;72.15
68248;SHT30;55064;49.636;12.164;2023-07-13T03:05:44;19.78;72.26
68248;SHT30;55064;49.636;12.164;2023-07-13T03:08:11;19.59;73.02
68248;SHT30;55064;49.636;12.164;2023-07-13T03:10:37;19.49;73.30
68248;SHT30;55064;49.636;12.164;2023-07-13T03:13:05;19.57;73.00
68248;SHT30;55064;49.636;12.164;2023-07-13T03:15:30;19.52;72.96
68248;SHT30;55064;49.636;12.164;2023-07-13T03:17:58;19.52;72.95
68248;SHT30;55064;49.636;12.164;2023-07-13T03:20:24;19.49;73.60
68248;SHT30;55064;49.636;12.164;2023-07-13T03:22:49;19.45;75.00
68248;SHT30;55064;49.636;12.164;2023-07-13T03:25:15;19.25;76.52
68248;SHT30;55064;49.636;12.164;2023-07-13T03:27:40;19.26;76.35
68248;SHT30;55064;49.636;12.164;2023-07-13T03:30:06;19.11;77.89
68248;SHT30;55064;49.636;12.164;2023-07-13T03:32:32;18.98;78.43
68248;SHT30;55064;49.636;12.164;2023-07-13T03:34:58;18.99;78.64
68248;SHT30;55064;49.636;12.164;2023-07-13T03:37:24;18.88;78.23
68248;SHT30;55064;49.636;12.164;2023-07-13T03:39:49;18.90;78.37
68248;SHT30;55064;49.636;12.164;2023-07-13T03:42:15;18.84;78.30
68248;SHT30;55064;49.636;12.164;2023-07-13T03:44:41;18.44;79.38
68248;SHT30;55064;49.636;12.164;2023-07-13T03:47:08;18.39;79.56
68248;SHT30;55064;49.636;12.164;2023-07-13T03:49:34;18.47;79.03
68248;SHT30;55064;49.636;12.164;2023-07-13T03:52:00;18.47;79.44
68248;SHT30;55064;49.636;12.164;2023-07-13T03:54:26;18.47;79.24
68248;SHT30;55064;49.636;12.164;2023-07-13T03:56:51;18.54;78.52
68248;SHT30;55064;49.636;12.164;2023-07-13T03:59:17;18.57;78.41
68248;SHT30;55064;49.636;12.164;2023-07-13T04:01:44;18.61;78.10
68248;SHT30;55064;49.636;12.164;2023-07-13T04:04:10;18.57;77.63
68248;SHT30;55064;49.636;12.164;2023-07-13T04:06:41;18.75;76.90
68248;SHT30;55064;49.636;12.164;2023-07-13T04:09:06;18.73;77.22
68248;SHT30;55064;49.636;12.164;2023-07-13T04:11:36;18.73;76.87
68248;SHT30;55064;49.636;12.164;2023-07-13T04:14:03;18.85;76.43
68248;SHT30;55064;49.636;12.164;2023-07-13T04:16:33;18.91;76.26
68248;SHT30;55064;49.636;12.164;2023-07-13T04:19:06;18.92;75.61
68248;SHT30;55064;49.636;12.164;2023-07-13T04:21:31;19.04;75.41
68248;SHT30;55064;49.636;12.164;2023-07-13T04:23:57;19.23;74.43
68248;SHT30;55064;49.636;12.164;2023-07-13T04:26:23;19.53;73.80
68248;SHT30;55064;49.636;12.164;2023-07-13T04:28:50;19.60;73.68
68248;SHT30;55064;49.636;12.164;2023-07-13T04:31:15;20.09;72.34
68248;SHT30;55064;49.636;12.164;2023-07-13T04:33:41;19.70;73.00
68248;SHT30;55064;49.636;12.164;2023-07-13T04:36:09;19.59;73.85
68248;SHT30;55064;49.636;12.164;2023-07-13T04:38:37;19.35;74.56
68248;SHT30;55064;49.636;12.164;2023-07-13T04:41:04;19.64;73.47
68248;SHT30;55064;49.636;12.164;2023-07-13T04:43:32;19.71;72.24
68248;SHT30;55064;49.636;12.164;2023-07-13T04:46:06;19.70;71.54
68248;SHT30;55064;49.636;12.164;2023-07-13T04:48:34;19.54;71.60
68248;SHT30;55064;49.636;12.164;2023-07-13T04:51:00;19.52;71.82
68248;SHT30;55064;49.636;12.164;2023-07-13T04:53:28;19.56;71.92
68248;SHT30;55064;49.636;12.164;2023-07-13T04:55:53;19.66;72.06
68248;SHT30;55064;49.636;12.164;2023-07-13T04:58:19;19.59;72.27
68248;SHT30;55064;49.636;12.164;2023-07-13T05:00:44;19.54;72.00
68248;SHT30;55064;49.636;12.164;2023-07-13T05:03:09;19.49;71.41
68248;SHT30;55064;49.636;12.164;2023-07-13T05:05:36;19.63;70.73
68248;SHT30;55064;49.636;12.164;2023-07-13T05:11:59;19.56;70.64
68248;SHT30;55064;49.636;12.164;2023-07-13T05:14:27;19.40;70.74
68248;SHT30;55064;49.636;12.164;2023-07-13T05:16:53;19.29;71.70
68248;SHT30;55064;49.636;12.164;2023-07-13T05:19:19;19.29;71.59
68248;SHT30;55064;49.636;12.164;2023-07-13T05:25:08;19.08;72.13
68248;SHT30;55064;49.636;12.164;2023-07-13T05:27:46;19.05;71.81
68248;SHT30;55064;49.636;12.164;2023-07-13T05:30:12;19.30;71.25
68248;SHT30;55064;49.636;12.164;2023-07-13T05:32:40;19.20;71.00
68248;SHT30;55064;49.636;12.164;2023-07-13T05:35:06;19.42;70.46
68248;SHT30;55064;49.636;12.164;2023-07-13T05:37:32;19.35;70.12
68248;SHT30;55064;49.636;12.164;2023-07-13T05:40:00;19.37;70.16
68248;SHT30;55064;49.636;12.164;2023-07-13T05:42:30;19.50;70.29
68248;SHT30;55064;49.636;12.164;2023-07-13T05:44:57;19.64;69.59
68248;SHT30;55064;49.636;12.164;2023-07-13T05:47:23;19.70;69.55
68248;SHT30;55064;49.636;12.164;2023-07-13T05:49:52;19.71;69.55
68248;SHT30;55064;49.636;12.164;2023-07-13T05:52:17;19.74;69.90
68248;SHT30;55064;49.636;12.164;2023-07-13T05:54:42;19.71;70.09
68248;SHT30;55064;49.636;12.164;2023-07-13T05:57:08;19.75;69.53
68248;SHT30;55064;49.636;12.164;2023-07-13T05:59:33;19.59;69.86
68248;SHT30;55064;49.636;12.164;2023-07-13T06:01:58;19.64;69.22
68248;SHT30;55064;49.636;12.164;2023-07-13T06:04:24;19.75;68.79
68248;SHT30;55064;49.636;12.164;2023-07-13T06:06:49;19.85;68.43
68248;SHT30;55064;49.636;12.164;2023-07-13T06:09:17;19.81;68.42
68248;SHT30;55064;49.636;12.164;2023-07-13T06:11:43;19.81;68.04
68248;SHT30;55064;49.636;12.164;2023-07-13T06:14:10;19.80;68.03
68248;SHT30;55064;49.636;12.164;2023-07-13T06:16:39;19.70;68.78
68248;SHT30;55064;49.636;12.164;2023-07-13T06:19:06;19.87;68.56
68248;SHT30;55064;49.636;12.164;2023-07-13T06:21:31;19.90;68.40
68248;SHT30;55064;49.636;12.164;2023-07-13T06:23:57;19.95;68.04
68248;SHT30;55064;49.636;12.164;2023-07-13T06:26:26;20.00;67.31
68248;SHT30;55064;49.636;12.164;2023-07-13T06:28:53;20.14;67.62
68248;SHT30;55064;49.636;12.164;2023-07-13T06:31:19;20.28;67.28
68248;SHT30;55064;49.636;12.164;2023-07-13T06:33:44;20.42;66.32
68248;SHT30;55064;49.636;12.164;2023-07-13T06:36:12;20.42;65.67
68248;SHT30;55064;49.636;12.164;2023-07-13T06:38:38;20.33;66.26
68248;SHT30;55064;49.636;12.164;2023-07-13T06:41:05;20.56;65.76
68248;SHT30;55064;49.636;12.164;2023-07-13T06:43:30;20.76;65.06
68248;SHT30;55064;49.636;12.164;2023-07-13T06:45:57;20.74;64.71
68248;SHT30;55064;49.636;12.164;2023-07-13T06:48:23;20.90;65.14
68248;SHT30;55064;49.636;12.164;2023-07-13T06:50:49;20.97;64.54
68248;SHT30;55064;49.636;12.164;2023-07-13T06:53:19;21.00;64.28
68248;SHT30;55064;49.636;12.164;2023-07-13T06:55:45;21.05;64.05
68248;SHT30;55064;49.636;12.164;2023-07-13T06:58:14;21.08;63.55
68248;SHT30;55064;49.636;12.164;2023-07-13T07:00:40;21.29;63.80
68248;SHT30;55064;49.636;12.164;2023-07-13T07:03:06;21.32;63.39
68248;SHT30;55064;49.636;12.164;2023-07-13T07:05:31;21.41;63.18
68248;SHT30;55064;49.636;12.164;2023-07-13T07:07:56;21.49;63.50
68248;SHT30;55064;49.636;12.164;2023-07-13T07:10:22;21.56;62.52
68248;SHT30;55064;49.636;12.164;2023-07-13T07:12:47;21.67;63.10
68248;SHT30;55064;49.636;12.164;2023-07-13T07:15:13;21.83;61.59
68248;SHT30;55064;49.636;12.164;2023-07-13T07:17:43;21.87;62.26
68248;SHT30;55064;49.636;12.164;2023-07-13T07:20:09;21.98;60.65
68248;SHT30;55064;49.636;12.164;2023-07-13T07:22:35;22.07;60.25
68248;SHT30;55064;49.636;12.164;2023-07-13T07:25:00;22.17;59.93
68248;SHT30;55064;49.636;12.164;2023-07-13T07:27:26;22.25;60.26
68248;SHT30;55064;49.636;12.164;2023-07-13T07:29:52;22.28;59.93
68248;SHT30;55064;49.636;12.164;2023-07-13T07:32:19;22.25;59.58
68248;SHT30;55064;49.636;12.164;2023-07-13T07:34:45;22.22;59.35
68248;SHT30;55064;49.636;12.164;2023-07-13T07:37:12;22.25;58.53
68248;SHT30;55064;49.636;12.164;2023-07-13T07:39:38;22.37;58.33
68248;SHT30;55064;49.636;12.164;2023-07-13T07:42:03;22.44;57.91
68248;SHT30;55064;49.636;12.164;2023-07-13T07:44:31;22.65;57.33
68248;SHT30;55064;49.636;12.164;2023-07-13T07:46:59;22.75;57.11
68248;SHT30;55064;49.636;12.164;2023-07-13T07:49:24;22.86;57.09
68248;SHT30;55064;49.636;12.164;2023-07-13T07:51:50;23.03;55.36
68248;SHT30;55064;49.636;12.164;2023-07-13T07:54:17;23.08;54.70
68248;SHT30;55064;49.636;12.164;2023-07-13T07:56:44;23.32;55.20
68248;SHT30;55064;49.636;12.164;2023-07-13T07:59:09;23.47;54.85
68248;SHT30;55064;49.636;12.164;2023-07-13T08:01:35;23.63;54.18
68248;SHT30;55064;49.636;12.164;2023-07-13T08:04:03;23.73;54.46
68248;SHT30;55064;49.636;12.164;2023-07-13T08:06:29;23.58;54.64
68248;SHT30;55064;49.636;12.164;2023-07-13T08:08:54;23.21;53.66
68248;SHT30;55064;49.636;12.164;2023-07-13T08:11:21;23.14;54.29
68248;SHT30;55064;49.636;12.164;2023-07-13T08:13:46;22.93;54.33
68248;SHT30;55064;49.636;12.164;2023-07-13T08:16:12;22.85;53.58
68248;SHT30;55064;49.636;12.164;2023-07-13T08:18:37;22.80;54.64
68248;SHT30;55064;49.636;12.164;2023-07-13T08:21:04;22.93;54.84
68248;SHT30;55064;49.636;12.164;2023-07-13T08:23:31;22.97;54.33
68248;SHT30;55064;49.636;12.164;2023-07-13T08:25:59;22.87;54.85
68248;SHT30;55064;49.636;12.164;2023-07-13T08:28:27;22.89;54.84
68248;SHT30;55064;49.636;12.164;2023-07-13T08:30:53;23.30;54.17
68248;SHT30;55064;49.636;12.164;2023-07-13T08:33:22;23.27;51.01
68248;SHT30;55064;49.636;12.164;2023-07-13T08:35:50;23.14;48.89
68248;SHT30;55064;49.636;12.164;2023-07-13T08:38:18;23.38;48.03
68248;SHT30;55064;49.636;12.164;2023-07-13T08:40:45;24.06;49.40
68248;SHT30;55064;49.636;12.164;2023-07-13T08:43:17;24.47;49.71
68248;SHT30;55064;49.636;12.164;2023-07-13T08:48:26;24.72;47.91
68248;SHT30;55064;49.636;12.164;2023-07-13T08:51:02;24.51;44.97
68248;SHT30;55064;49.636;12.164;2023-07-13T08:53:36;24.20;46.36
68248;SHT30;55064;49.636;12.164;2023-07-13T08:56:04;23.89;48.71
68248;SHT30;55064;49.636;12.164;2023-07-13T08:58:33;23.68;50.32
68248;SHT30;55064;49.636;12.164;2023-07-13T09:01:06;23.73;50.50
68248;SHT30;55064;49.636;12.164;2023-07-13T09:03:50;23.83;50.27
68248;SHT30;55064;49.636;12.164;2023-07-13T09:06:20;24.10;47.25
68248;SHT30;55064;49.636;12.164;2023-07-13T09:08:55;24.48;47.36
68248;SHT30;55064;49.636;12.164;2023-07-13T09:16:27;24.96;45.73
68248;SHT30;55064;49.636;12.164;2023-07-13T09:18:56;25.05;46.24
68248;SHT30;55064;49.636;12.164;2023-07-13T09:21:28;25.27;44.70
68248;SHT30;55064;49.636;12.164;2023-07-13T09:24:24;24.97;44.22
68248;SHT30;55064;49.636;12.164;2023-07-13T09:26:44;25.26;43.96
68248;SHT30;55064;49.636;12.164;2023-07-13T09:29:16;25.41;42.21
68248;SHT30;55064;49.636;12.164;2023-07-13T09:31:50;25.43;42.66
68248;SHT30;55064;49.636;12.164;2023-07-13T09:34:18;25.31;42.60
68248;SHT30;55064;49.636;12.164;2023-07-13T09:36:43;25.45;42.52
68248;SHT30;55064;49.636;12.164;2023-07-13T09:42:17;25.62;43.25
68248;SHT30;55064;49.636;12.164;2023-07-13T09:45:00;25.65;41.46
68248;SHT30;55064;49.636;12.164;2023-07-13T09:47:32;25.52;41.01
68248;SHT30;55064;49.636;12.164;2023-07-13T09:50:06;25.81;40.21
68248;SHT30;55064;49.636;12.164;2023-07-13T09:52:46;26.10;41.00
68248;SHT30;55064;49.636;12.164;2023-07-13T09:55:34;26.07;42.15
68248;SHT30;55064;49.636;12.164;2023-07-13T09:58:16;25.78;42.66
68248;SHT30;55064;49.636;12.164;2023-07-13T10:00:54;26.13;39.11
68248;SHT30;55064;49.636;12.164;2023-07-13T10:03:24;26.05;38.50
68248;SHT30;55064;49.636;12.164;2023-07-13T10:05:50;26.37;39.18
68248;SHT30;55064;49.636;12.164;2023-07-13T10:08:29;26.44;39.85
68248;SHT30;55064;49.636;12.164;2023-07-13T10:11:01;26.02;40.81
68248;SHT30;55064;49.636;12.164;2023-07-13T10:15:57;25.95;41.41
68248;SHT30;55064;49.636;12.164;2023-07-13T10:18:26;26.06;41.31
68248;SHT30;55064;49.636;12.164;2023-07-13T10:21:00;26.12;41.95
68248;SHT30;55064;49.636;12.164;2023-07-13T10:23:34;26.26;42.75
68248;SHT30;55064;49.636;12.164;2023-07-13T10:26:03;26.16;42.17
68248;SHT30;55064;49.636;12.164;2023-07-13T10:28:33;25.88;41.93
68248;SHT30;55064;49.636;12.164;2023-07-13T10:31:01;25.48;40.17
68248;SHT30;55064;49.636;12.164;2023-07-13T10:33:30;25.19;39.55
68248;SHT30;55064;49.636;12.164;2023-07-13T10:36:17;25.45;40.43
68248;SHT30;55064;49.636;12.164;2023-07-13T10:38:46;25.30;40.79
68248;SHT30;55064;49.636;12.164;2023-07-13T10:41:18;25.99;39.83
68248;SHT30;55064;49.636;12.164;2023-07-13T10:43:49;25.79;39.99
68248;SHT30;55064;49.636;12.164;2023-07-13T10:46:19;25.54;39.61
68248;SHT30;55064;49.636;12.164;2023-07-13T10:48:49;25.44;39.64
68248;SHT30;55064;49.636;12.164;2023-07-13T10:51:18;25.71;39.54
68248;SHT30;55064;49.636;12.164;2023-07-13T10:53:47;25.55;39.05
68248;SHT30;55064;49.636;12.164;2023-07-13T10:56:22;26.22;38.40
68248;SHT30;55064;49.636;12.164;2023-07-13T10:59:02;26.37;38.82
68248;SHT30;55064;49.636;12.164;2023-07-13T11:01:50;26.87;38.51
68248;SHT30;55064;49.636;12.164;2023-07-13T11:04:19;26.53;38.46
68248;SHT30;55064;49.636;12.164;2023-07-13T11:06:47;26.84;38.16
68248;SHT30;55064;49.636;12.164;2023-07-13T11:09:34;26.99;38.51
68248;SHT30;55064;49.636;12.164;2023-07-13T11:20:46;26.91;36.63
68248;SHT30;55064;49.636;12.164;2023-07-13T11:25:43;27.57;36.33
68248;SHT30;55064;49.636;12.164;2023-07-13T11:30:40;27.81;34.42
68248;SHT30;55064;49.636;12.164;2023-07-13T11:36:07;26.96;35.58
68248;SHT30;55064;49.636;12.164;2023-07-13T11:39:02;27.60;35.13
68248;SHT30;55064;49.636;12.164;2023-07-13T11:41:37;26.99;34.32
68248;SHT30;55064;49.636;12.164;2023-07-13T11:46:38;27.35;35.30
68248;SHT30;55064;49.636;12.164;2023-07-13T11:49:06;27.43;34.04
68248;SHT30;55064;49.636;12.164;2023-07-13T11:51:34;27.61;33.91
68248;SHT30;55064;49.636;12.164;2023-07-13T11:54:11;27.19;34.54
68248;SHT30;55064;49.636;12.164;2023-07-13T11:56:38;27.76;34.39
68248;SHT30;55064;49.636;12.164;2023-07-13T11:59:07;27.80;34.14
68248;SHT30;55064;49.636;12.164;2023-07-13T12:01:34;28.06;33.95
68248;SHT30;55064;49.636;12.164;2023-07-13T12:04:04;28.29;33.12
68248;SHT30;55064;49.636;12.164;2023-07-13T12:06:35;27.91;33.66
68248;SHT30;55064;49.636;12.164;2023-07-13T12:09:12;27.88;32.94
68248;SHT30;55064;49.636;12.164;2023-07-13T12:11:42;27.71;32.16
68248;SHT30;55064;49.636;12.164;2023-07-13T12:14:15;27.78;32.49
68248;SHT30;55064;49.636;12.164;2023-07-13T12:16:42;27.61;31.75
68248;SHT30;55064;49.636;12.164;2023-07-13T12:19:26;27.99;30.75
68248;SHT30;55064;49.636;12.164;2023-07-13T12:21:57;28.08;31.73
68248;SHT30;55064;49.636;12.164;2023-07-13T12:24:23;28.13;31.53
68248;SHT30;55064;49.636;12.164;2023-07-13T12:26:53;28.33;32.01
68248;SHT30;55064;49.636;12.164;2023-07-13T12:29:20;28.47;32.01
68248;SHT30;55064;49.636;12.164;2023-07-13T12:31:48;28.74;31.89
68248;SHT30;55064;49.636;12.164;2023-07-13T12:34:20;28.45;31.15
68248;SHT30;55064;49.636;12.164;2023-07-13T12:36:59;28.64;31.71
68248;SHT30;55064;49.636;12.164;2023-07-13T12:39:37;28.70;32.40
68248;SHT30;55064;49.636;12.164;2023-07-13T12:44:49;28.20;32.32
68248;SHT30;55064;49.636;12.164;2023-07-13T12:47:20;28.04;32.28
68248;SHT30;55064;49.636;12.164;2023-07-13T12:49:57;28.25;33.37
68248;SHT30;55064;49.636;12.164;2023-07-13T12:52:30;28.18;31.53
68248;SHT30;55064;49.636;12.164;2023-07-13T12:57:31;28.08;32.99
68248;SHT30;55064;49.636;12.164;2023-07-13T12:59:57;27.64;33.30
68248;SHT30;55064;49.636;12.164;2023-07-13T13:02:29;27.53;33.20
68248;SHT30;55064;49.636;12.164;2023-07-13T13:04:56;27.68;33.99
68248;SHT30;55064;49.636;12.164;2023-07-13T13:07:23;28.06;33.06
68248;SHT30;55064;49.636;12.164;2023-07-13T13:09:49;28.01;32.58
68248;SHT30;55064;49.636;12.164;2023-07-13T13:12:14;28.06;32.60
68248;SHT30;55064;49.636;12.164;2023-07-13T13:14:42;28.22;33.38
68248;SHT30;55064;49.636;12.164;2023-07-13T13:17:22;28.22;33.10
68248;SHT30;55064;49.636;12.164;2023-07-13T13:19:56;28.25;33.18
68248;SHT30;55064;49.636;12.164;2023-07-13T13:22:26;27.65;33.43
68248;SHT30;55064;49.636;12.164;2023-07-13T13:24:52;27.64;33.99
68248;SHT30;55064;49.636;12.164;2023-07-13T13:27:22;27.30;34.10
68248;SHT30;55064;49.636;12.164;2023-07-13T13:29:49;27.51;33.39
68248;SHT30;55064;49.636;12.164;2023-07-13T13:32:16;27.37;33.62
68248;SHT30;55064;49.636;12.164;2023-07-13T13:34:42;27.50;34.43
68248;SHT30;55064;49.636;12.164;2023-07-13T13:37:23;27.64;34.01
68248;SHT30;55064;49.636;12.164;2023-07-13T13:39:49;27.50;33.10
68248;SHT30;55064;49.636;12.164;2023-07-13T13:42:17;27.51;33.24
68248;SHT30;55064;49.636;12.164;2023-07-13T13:44:42;27.26;33.75
68248;SHT30;55064;49.636;12.164;2023-07-13T13:47:24;27.55;34.35
68248;SHT30;55064;49.636;12.164;2023-07-13T13:49:52;27.51;33.93
68248;SHT30;55064;49.636;12.164;2023-07-13T13:52:17;27.23;32.89
68248;SHT30;55064;49.636;12.164;2023-07-13T13:54:43;27.16;33.41
68248;SHT30;55064;49.636;12.164;2023-07-13T13:57:10;27.43;33.11
68248;SHT30;55064;49.636;12.164;2023-07-13T13:59:39;27.50;33.35
68248;SHT30;55064;49.636;12.164;2023-07-13T14:02:25;27.78;33.41
68248;SHT30;55064;49.636;12.164;2023-07-13T14:04:58;27.88;33.22
68248;SHT30;55064;49.636;12.164;2023-07-13T14:07:25;27.63;33.30
68248;SHT30;55064;49.636;12.164;2023-07-13T14:09:54;27.64;34.30
68248;SHT30;55064;49.636;12.164;2023-07-13T14:12:21;27.55;34.83
68248;SHT30;55064;49.636;12.164;2023-07-13T14:14:46;27.57;34.27
68248;SHT30;55064;49.636;12.164;2023-07-13T14:17:24;27.23;34.52
68248;SHT30;55064;49.636;12.164;2023-07-13T14:19:51;26.87;34.73
68248;SHT30;55064;49.636;12.164;2023-07-13T14:22:17;27.25;35.40
68248;SHT30;55064;49.636;12.164;2023-07-13T14:24:43;26.96;34.54
68248;SHT30;55064;49.636;12.164;2023-07-13T14:27:12;27.00;35.24
68248;SHT30;55064;49.636;12.164;2023-07-13T14:29:40;27.16;35.23
68248;SHT30;55064;49.636;12.164;2023-07-13T14:32:10;27.63;35.43
68248;SHT30;55064;49.636;12.164;2023-07-13T14:34:36;27.42;34.36
68248;SHT30;55064;49.636;12.164;2023-07-13T14:37:01;27.36;34.19
68248;SHT30;55064;49.636;12.164;2023-07-13T14:39:29;27.06;34.64
68248;SHT30;55064;49.636;12.164;2023-07-13T14:41:56;26.67;35.40
68248;SHT30;55064;49.636;12.164;2023-07-13T14:44:27;26.44;35.39
68248;SHT30;55064;49.636;12.164;2023-07-13T14:46:57;26.94;34.35
68248;SHT30;55064;49.636;12.164;2023-07-13T14:49:28;27.22;34.42
68248;SHT30;55064;49.636;12.164;2023-07-13T14:52:02;27.46;33.80
68248;SHT30;55064;49.636;12.164;2023-07-13T14:54:29;27.19;34.37
68248;SHT30;55064;49.636;12.164;2023-07-13T14:56:55;26.71;35.57
68248;SHT30;55064;49.636;12.164;2023-07-13T14:59:22;26.61;36.14
68248;SHT30;55064;49.636;12.164;2023-07-13T15:01:49;26.53;36.01
68248;SHT30;55064;49.636;12.164;2023-07-13T15:04:16;26.51;36.26
68248;SHT30;55064;49.636;12.164;2023-07-13T15:07:03;26.55;36.09
68248;SHT30;55064;49.636;12.164;2023-07-13T15:09:36;26.54;36.12
68248;SHT30;55064;49.636;12.164;2023-07-13T15:15:11;26.48;36.58
68248;SHT30;55064;49.636;12.164;2023-07-13T15:17:47;26.54;36.62
68248;SHT30;55064;49.636;12.164;2023-07-13T15:20:26;26.55;37.07
68248;SHT30;55064;49.636;12.164;2023-07-13T15:22:53;26.45;36.55
68248;SHT30;55064;49.636;12.164;2023-07-13T15:25:24;26.29;36.04
68248;SHT30;55064;49.636;12.164;2023-07-13T15:27:50;26.07;35.73
68248;SHT30;55064;49.636;12.164;2023-07-13T15:30:27;25.99;36.19
68248;SHT30;55064;49.636;12.164;2023-07-13T15:33:17;25.90;36.36
68248;SHT30;55064;49.636;12.164;2023-07-13T15:38:55;25.62;36.83
68248;SHT30;55064;49.636;12.164;2023-07-13T15:41:29;25.58;37.21
68248;SHT30;55064;49.636;12.164;2023-07-13T15:47:16;25.48;37.55
68248;SHT30;55064;49.636;12.164;2023-07-13T15:49:49;25.65;38.71
68248;SHT30;55064;49.636;12.164;2023-07-13T15:52:22;25.54;37.87
68248;SHT30;55064;49.636;12.164;2023-07-13T15:54:54;25.75;38.05
68248;SHT30;55064;49.636;12.164;2023-07-13T15:57:20;25.81;37.16
68248;SHT30;55064;49.636;12.164;2023-07-13T15:59:46;26.17;37.68
68248;SHT30;55064;49.636;12.164;2023-07-13T16:02:17;26.07;36.54
68248;SHT30;55064;49.636;12.164;2023-07-13T16:04:43;25.77;37.14
68248;SHT30;55064;49.636;12.164;2023-07-13T16:07:13;25.52;37.44
68248;SHT30;55064;49.636;12.164;2023-07-13T16:09:41;25.58;37.45
68248;SHT30;55064;49.636;12.164;2023-07-13T16:12:13;25.86;37.13
68248;SHT30;55064;49.636;12.164;2023-07-13T16:14:44;26.10;38.24
68248;SHT30;55064;49.636;12.164;2023-07-13T16:17:14;25.65;37.63
68248;SHT30;55064;49.636;12.164;2023-07-13T16:19:40;25.62;38.48
68248;SHT30;55064;49.636;12.164;2023-07-13T16:22:15;25.41;38.00